Time;durP1;ratioP1;P1;durP2;ratioP2;P2;SDS_P1;SDS_P2;PMS_P1;PMS_P2;Temp;Humidity;BMP_temperature;BMP_pressure;BME280_temperature;BME280_humidity;BME280_pressure;Samples;Min_cycle;Max_cycle;Signal;HPM_P1;HPM_P2
2022/07/01 00:00:38;;;;;;;13.13;11.73;;;14.50;99.90;;;;;;5029687;28;20378;-74
2022/07/01 00:03:04;;;;;;;12.10;10.93;;;14.50;99.90;;;;;;5027626;28;20033;-75
2022/07/01 00:05:30;;;;;;;11.80;10.57;;;14.40;99.90;;;;;;5017054;28;20448;-74
2022/07/01 00:07:56;;;;;;;11.85;10.75;;;14.40;99.90;;;;;;5029455;28;20037;-75
2022/07/01 00:10:21;;;;;;;11.18;10.07;;;14.40;99.90;;;;;;5014523;28;20025;-75
2022/07/01 00:12:47;;;;;;;10.80;9.80;;;14.50;99.90;;;;;;5031121;28;20527;-75
2022/07/01 00:15:13;;;;;;;11.93;10.48;;;14.40;99.90;;;;;;5019823;28;20112;-75
2022/07/01 00:17:39;;;;;;;16.50;14.82;;;14.50;99.90;;;;;;5019820;28;20489;-76
2022/07/01 00:20:09;;;;;;;14.48;13.05;;;14.40;99.90;;;;;;5026913;28;20030;-75
2022/07/01 00:22:35;;;;;;;;;;;14.30;99.90;;;;;;5020573;28;20041;-75
2022/07/01 00:25:01;;;;;;;15.88;13.45;;;14.30;99.90;;;;;;5027668;28;21727;-75
2022/07/01 00:27:26;;;;;;;12.75;11.45;;;14.30;99.90;;;;;;5001950;28;20059;-75
2022/07/01 00:29:52;;;;;;;12.52;11.32;;;14.20;99.90;;;;;;5011571;28;20041;-75
2022/07/01 00:32:18;;;;;;;12.20;11.05;;;14.20;99.90;;;;;;5018126;28;20409;-76
2022/07/01 00:34:43;;;;;;;13.23;11.75;;;14.20;99.90;;;;;;4999666;28;20108;-74
2022/07/01 00:37:09;;;;;;;12.77;11.38;;;14.20;99.90;;;;;;5014546;28;20036;-75
2022/07/01 00:39:36;;;;;;;13.25;11.90;;;14.20;99.90;;;;;;5028633;28;20029;-75
2022/07/01 00:42:04;;;;;;;10.65;9.65;;;14.10;99.90;;;;;;5008794;28;20087;-75
2022/07/01 00:44:30;;;;;;;8.57;7.78;;;14.10;99.90;;;;;;5006692;28;20083;-74
2022/07/01 00:46:59;;;;;;;11.00;10.02;;;14.20;99.90;;;;;;5018369;28;20034;-75
2022/07/01 00:49:25;;;;;;;10.25;9.32;;;14.20;99.90;;;;;;5020099;28;20029;-76
2022/07/01 00:51:52;;;;;;;8.70;7.55;;;14.20;99.90;;;;;;5012845;28;20405;-76
2022/07/01 00:54:19;;;;;;;8.57;7.70;;;14.10;99.90;;;;;;5019894;28;20070;-74
2022/07/01 00:56:45;;;;;;;9.00;7.03;;;14.10;99.90;;;;;;5028641;28;22547;-74
2022/07/01 00:59:11;;;;;;;11.27;10.20;;;14.20;99.90;;;;;;5027596;28;20091;-75
2022/07/01 01:01:37;;;;;;;15.88;14.27;;;14.20;99.90;;;;;;5015675;28;20508;-75
2022/07/01 01:04:03;;;;;;;14.30;12.80;;;14.20;99.90;;;;;;5027313;28;20025;-75
2022/07/01 01:06:29;;;;;;;17.33;15.48;;;14.10;99.90;;;;;;5020234;28;20052;-75
2022/07/01 01:08:54;;;;;;;15.63;14.05;;;14.10;99.90;;;;;;5020137;28;20029;-75
2022/07/01 01:11:20;;;;;;;14.93;13.30;;;14.20;99.90;;;;;;5019137;28;20025;-75
2022/07/01 01:13:46;;;;;;;17.02;15.10;;;14.20;99.90;;;;;;5016862;28;20385;-74
2022/07/01 01:16:22;;;;;;;19.50;17.40;;;14.20;99.90;;;;;;5026330;28;20041;-74
2022/07/01 01:18:48;;;;;;;21.58;18.17;;;14.20;99.90;;;;;;5011669;28;20034;-75
2022/07/01 01:21:14;;;;;;;20.42;18.23;;;14.20;99.90;;;;;;5017908;28;20033;-75
2022/07/01 01:23:40;;;;;;;28.52;22.48;;;14.30;99.90;;;;;;5008329;28;20029;-76
2022/07/01 01:26:35;;;;;;;30.27;22.75;;;14.20;99.90;;;;;;5026584;28;20033;-74
2022/07/01 01:29:01;;;;;;;19.13;16.40;;;14.20;99.90;;;;;;5011076;28;20124;-74
2022/07/01 01:31:29;;;;;;;17.95;13.98;;;14.30;99.90;;;;;;5013110;28;20035;-75
2022/07/01 01:33:55;;;;;;;24.17;19.13;;;14.30;99.90;;;;;;5015642;28;20116;-74
2022/07/01 01:36:21;;;;;;;25.92;20.70;;;14.30;99.90;;;;;;5027027;28;20123;-75
2022/07/01 01:38:46;;;;;;;35.35;28.05;;;14.30;99.90;;;;;;5017761;28;20032;-76
2022/07/01 01:41:12;;;;;;;36.35;27.52;;;14.20;99.90;;;;;;5011986;28;20042;-75
2022/07/01 01:43:38;;;;;;;41.30;30.33;;;14.20;99.90;;;;;;5042091;28;20032;-76
2022/07/01 01:46:04;;;;;;;36.95;28.23;;;14.20;99.90;;;;;;5008276;28;20464;-74
2022/07/01 01:48:31;;;;;;;39.58;28.98;;;14.20;99.90;;;;;;5027166;28;20025;-75
2022/07/01 01:50:57;;;;;;;41.88;31.45;;;14.20;99.90;;;;;;5027283;28;20025;-74
2022/07/01 01:53:23;;;;;;;34.30;27.35;;;14.10;99.90;;;;;;5026442;28;20509;-75
2022/07/01 01:55:49;;;;;;;30.15;23.02;;;14.20;99.90;;;;;;5026694;28;20029;-74
2022/07/01 01:58:15;;;;;;;27.45;20.83;;;14.20;99.90;;;;;;5028840;28;20405;-80
2022/07/01 02:00:41;;;;;;;29.67;23.65;;;14.20;99.90;;;;;;5026691;28;20093;-74
2022/07/01 02:03:07;;;;;;;28.67;22.98;;;14.20;99.90;;;;;;5026720;28;20037;-74
2022/07/01 02:05:36;;;;;;;26.45;21.30;;;14.30;99.90;;;;;;4997442;28;20167;-76
2022/07/01 02:08:02;;;;;;;25.63;19.65;;;14.30;99.90;;;;;;5026760;28;20033;-75
2022/07/01 02:10:28;;;;;;;29.42;23.10;;;14.30;99.90;;;;;;5009007;28;20038;-75
2022/07/01 02:12:54;;;;;;;24.55;18.58;;;14.20;99.90;;;;;;5011922;28;20154;-74
2022/07/01 02:15:20;;;;;;;21.98;18.42;;;14.30;99.90;;;;;;5027025;28;20029;-74
2022/07/01 02:17:46;;;;;;;24.10;19.15;;;14.40;99.90;;;;;;5019561;28;20029;-74
2022/07/01 02:20:14;;;;;;;21.98;17.85;;;14.30;99.90;;;;;;5018802;28;20051;-74
2022/07/01 02:22:41;;;;;;;20.92;16.85;;;14.30;99.90;;;;;;5010483;28;20611;-74
2022/07/01 02:25:08;;;;;;;22.45;17.88;;;14.40;99.90;;;;;;4995720;28;20033;-74
2022/07/01 02:27:34;;;;;;;23.95;19.05;;;14.30;99.90;;;;;;5025275;28;20616;-75
2022/07/01 02:30:00;;;;;;;23.67;18.58;;;14.30;99.90;;;;;;5016322;28;20116;-74
2022/07/01 02:32:25;;;;;;;37.38;29.27;;;14.30;99.90;;;;;;5026833;28;20028;-74
2022/07/01 02:34:51;;;;;;;35.88;28.38;;;14.10;99.90;;;;;;5027737;28;20080;-75
2022/07/01 02:37:17;;;;;;;30.40;25.67;;;14.00;99.90;;;;;;5026689;28;20051;-76
2022/07/01 02:39:43;;;;;;;30.02;24.55;;;14.10;99.90;;;;;;5018850;28;20125;-74
2022/07/01 02:42:25;;;;;;;36.10;28.60;;;14.10;99.90;;;;;;5011946;28;20041;-74
2022/07/01 02:44:51;;;;;;;31.02;25.10;;;14.00;99.90;;;;;;5002151;28;20037;-74
2022/07/01 02:47:16;;;;;;;38.10;30.60;;;14.10;99.90;;;;;;5019275;28;20037;-74
2022/07/01 02:49:42;;;;;;;33.80;27.73;;;14.00;99.90;;;;;;5027867;28;20041;-74
2022/07/01 02:52:08;;;;;;;38.70;31.98;;;14.00;99.90;;;;;;5024916;28;20453;-74
2022/07/01 02:54:33;;;;;;;37.97;29.63;;;14.00;99.90;;;;;;5014866;28;20507;-74
2022/07/01 02:56:59;;;;;;;34.90;27.38;;;14.00;99.90;;;;;;5013493;28;20040;-74
2022/07/01 02:59:25;;;;;;;29.05;23.30;;;13.90;99.90;;;;;;5029558;28;20048;-74
2022/07/01 03:01:50;;;;;;;33.50;27.38;;;14.00;99.90;;;;;;5015309;28;20128;-74
2022/07/01 03:04:16;;;;;;;26.42;23.15;;;14.00;99.90;;;;;;5029507;28;20033;-74
2022/07/01 03:06:42;;;;;;;30.98;25.48;;;14.00;99.90;;;;;;5029973;28;20091;-74
2022/07/01 03:09:08;;;;;;;31.50;26.30;;;14.00;99.90;;;;;;5005118;28;20037;-74
2022/07/01 03:11:33;;;;;;;33.50;27.05;;;14.00;99.90;;;;;;5029713;28;20033;-75
2022/07/01 03:13:59;;;;;;;23.85;20.27;;;13.90;99.90;;;;;;5020715;28;20127;-74
2022/07/01 03:16:25;;;;;;;32.22;26.08;;;14.00;99.90;;;;;;5032151;28;20040;-74
2022/07/01 03:18:51;;;;;;;30.88;25.15;;;14.00;99.90;;;;;;5017909;28;20060;-74
2022/07/01 03:21:16;;;;;;;26.77;22.52;;;13.90;99.90;;;;;;5028143;28;20045;-75
2022/07/01 03:23:42;;;;;;;21.63;17.67;;;14.00;99.90;;;;;;5016539;28;20022;-74
2022/07/01 03:26:08;;;;;;;26.98;22.23;;;14.10;99.90;;;;;;5029915;28;20053;-74
2022/07/01 03:28:34;;;;;;;26.27;20.60;;;14.00;99.90;;;;;;5021129;28;20025;-74
2022/07/01 03:31:00;;;;;;;21.52;17.45;;;14.00;99.90;;;;;;5017083;28;20470;-75
2022/07/01 03:33:27;;;;;;;21.52;16.85;;;14.10;99.90;;;;;;5018746;28;20504;-74
2022/07/01 03:35:53;;;;;;;20.67;16.30;;;14.10;99.90;;;;;;5030724;28;20520;-75
2022/07/01 03:38:18;;;;;;;18.25;15.48;;;14.10;99.90;;;;;;5029691;28;20028;-74
2022/07/01 03:40:44;;;;;;;22.48;17.73;;;14.00;99.90;;;;;;5028601;28;20112;-74
2022/07/01 03:43:10;;;;;;;24.23;18.23;;;13.90;99.90;;;;;;5029574;28;20026;-74
2022/07/01 03:45:35;;;;;;;22.15;17.70;;;13.90;99.90;;;;;;5028330;28;20024;-74
2022/07/01 03:48:04;;;;;;;18.25;14.95;;;13.90;99.90;;;;;;5028554;28;20037;-75
2022/07/01 03:50:30;;;;;;;18.83;14.10;;;13.90;99.90;;;;;;5028898;28;20393;-74
2022/07/01 03:55:40;;;;;;;15.02;11.90;;;14.00;99.90;;;;;;5020637;28;20025;-74
2022/07/01 03:58:06;;;;;;;14.27;11.98;;;14.10;99.90;;;;;;5014898;28;20546;-74
2022/07/01 04:00:35;;;;;;;15.18;12.80;;;14.10;99.90;;;;;;5019994;28;20021;-74
2022/07/01 04:03:01;;;;;;;17.20;14.20;;;14.10;99.90;;;;;;4997739;28;20059;-75
2022/07/01 04:05:27;;;;;;;13.18;10.40;;;14.10;99.90;;;;;;5013792;28;20049;-74
2022/07/01 04:07:53;;;;;;;15.02;12.63;;;14.10;99.90;;;;;;5012912;28;20049;-74
2022/07/01 04:10:19;;;;;;;18.65;14.23;;;14.00;99.90;;;;;;5022605;28;20473;-74
2022/07/01 04:12:45;;;;;;;12.88;10.48;;;14.00;99.90;;;;;;5008865;28;20028;-74
2022/07/01 04:15:11;;;;;;;17.88;13.15;;;14.00;99.90;;;;;;4998987;28;20152;-75
2022/07/01 04:17:37;;;;;;;15.27;11.95;;;14.00;99.90;;;;;;5003500;28;20033;-75
2022/07/01 04:20:04;;;;;;;16.80;13.57;;;14.10;99.90;;;;;;4997614;28;20037;-75
2022/07/01 04:22:32;;;;;;;22.10;16.38;;;14.00;99.90;;;;;;5025959;28;20048;-75
2022/07/01 04:24:59;;;;;;;19.98;15.20;;;13.90;99.90;;;;;;5015383;28;20567;-74
2022/07/01 04:27:25;;;;;;;17.98;13.80;;;13.90;99.90;;;;;;5026948;28;20037;-74
2022/07/01 04:29:50;;;;;;;22.10;16.35;;;14.00;99.90;;;;;;5026835;28;20041;-74
2022/07/01 04:32:16;;;;;;;19.45;14.32;;;13.80;99.90;;;;;;5024173;28;20033;-74
2022/07/01 04:34:42;;;;;;;16.35;12.60;;;14.00;99.90;;;;;;5012956;28;20033;-74
2022/07/01 04:37:07;;;;;;;15.88;12.02;;;14.10;99.90;;;;;;5012976;28;20036;-75
2022/07/01 04:39:33;;;;;;;25.83;18.20;;;14.10;99.90;;;;;;5010955;28;20075;-74
2022/07/01 04:41:59;;;;;;;16.75;13.10;;;14.00;99.90;;;;;;5028830;28;20041;-74
2022/07/01 04:44:25;;;;;;;14.30;12.43;;;14.10;99.90;;;;;;5026704;28;20037;-75
2022/07/01 04:46:51;;;;;;;14.13;11.15;;;14.10;99.90;;;;;;5025819;28;20036;-75
2022/07/01 04:49:17;;;;;;;17.02;13.48;;;14.20;99.90;;;;;;5013432;28;20140;-75
2022/07/01 04:51:43;;;;;;;12.00;10.35;;;14.10;99.90;;;;;;5009066;28;20642;-75
2022/07/01 04:54:09;;;;;;;11.70;10.18;;;14.10;99.90;;;;;;5027676;28;20029;-75
2022/07/01 04:56:35;;;;;;;12.40;9.63;;;14.20;99.90;;;;;;4997065;28;20028;-75
2022/07/01 04:59:02;;;;;;;13.00;10.07;;;14.30;99.90;;;;;;5023781;28;20033;-74
2022/07/01 05:01:28;;;;;;;14.88;11.43;;;14.30;99.90;;;;;;5015677;28;20375;-75
2022/07/01 05:03:57;;;;;;;11.82;10.23;;;14.20;99.90;;;;;;5015030;28;20053;-76
2022/07/01 05:06:24;;;;;;;12.25;9.63;;;14.20;99.90;;;;;;5012990;28;20061;-75
2022/07/01 05:08:49;;;;;;;10.35;7.85;;;14.20;99.90;;;;;;5040573;28;20029;-74
2022/07/01 05:11:15;;;;;;;9.27;8.27;;;14.30;99.90;;;;;;5026320;28;20091;-75
2022/07/01 05:13:41;;;;;;;10.77;7.40;;;14.30;99.90;;;;;;5024978;28;20033;-78
2022/07/01 05:16:08;;;;;;;9.02;7.47;;;14.40;99.90;;;;;;4996412;28;20039;-75
2022/07/01 05:24:04;;;;;;;6.55;5.85;;;14.30;99.90;;;;;;5026350;28;20607;-74
2022/07/01 05:26:30;;;;;;;6.50;5.82;;;14.40;99.90;;;;;;5017016;28;20059;-75
2022/07/01 05:28:55;;;;;;;8.85;6.90;;;14.40;99.90;;;;;;5013191;28;20053;-74
2022/07/01 05:31:21;;;;;;;9.68;6.50;;;14.50;99.90;;;;;;5017762;28;20124;-75
2022/07/01 05:33:47;;;;;;;10.65;8.43;;;14.40;99.90;;;;;;5018314;28;20028;-77
2022/07/01 05:36:14;;;;;;;10.30;7.68;;;14.40;99.90;;;;;;5026270;28;20025;-74
2022/07/01 05:38:39;;;;;;;11.27;8.55;;;14.30;99.90;;;;;;5012756;28;20036;-74
2022/07/01 05:41:06;;;;;;;11.23;8.55;;;14.30;99.90;;;;;;5028312;28;20282;-74
2022/07/01 05:43:33;;;;;;;10.50;8.00;;;14.40;99.90;;;;;;5007844;28;20025;-74
2022/07/01 05:45:58;;;;;;;10.90;6.72;;;14.50;99.90;;;;;;4997427;28;20033;-74
2022/07/01 05:48:25;;;;;;;8.88;6.65;;;14.60;99.90;;;;;;5001934;28;20055;-74
2022/07/01 05:50:51;;;;;;;8.90;6.97;;;14.50;99.90;;;;;;5026355;28;20594;-74
2022/07/01 05:53:17;;;;;;;8.18;5.97;;;14.50;99.90;;;;;;5025888;28;20048;-74
2022/07/01 05:55:43;;;;;;;8.52;6.22;;;14.50;99.90;;;;;;5009232;28;20374;-74
2022/07/01 05:58:11;;;;;;;8.68;6.18;;;14.50;99.90;;;;;;5011657;28;20037;-74
2022/07/01 06:00:38;;;;;;;9.60;8.18;;;14.50;99.90;;;;;;5028202;28;20146;-74
2022/07/01 06:03:03;;;;;;;10.85;7.32;;;14.50;99.90;;;;;;5013031;28;20372;-74
2022/07/01 06:05:32;;;;;;;13.98;10.98;;;14.50;99.90;;;;;;5003117;28;20304;-75
2022/07/01 06:07:57;;;;;;;12.65;9.98;;;14.50;99.90;;;;;;5010602;28;21712;-75
2022/07/01 06:10:23;;;;;;;14.82;11.27;;;14.50;99.90;;;;;;5026393;28;20033;-75
2022/07/01 06:12:49;;;;;;;15.60;12.73;;;14.50;99.90;;;;;;5026728;28;20448;-74
2022/07/01 06:15:15;;;;;;;11.70;9.68;;;14.50;99.90;;;;;;5026242;28;20555;-74
2022/07/01 06:17:41;;;;;;;13.57;12.13;;;14.60;99.90;;;;;;5025048;28;20033;-74
2022/07/01 06:20:08;;;;;;;16.77;12.57;;;14.50;99.90;;;;;;5008081;28;20066;-75
2022/07/01 06:22:33;;;;;;;13.48;10.25;;;14.40;99.90;;;;;;5007665;28;20069;-74
2022/07/01 06:25:00;;;;;;;16.13;13.07;;;14.70;99.90;;;;;;5009056;28;20133;-74
2022/07/01 06:27:26;;;;;;;14.23;11.68;;;14.60;99.90;;;;;;5038488;28;20085;-74
2022/07/01 06:29:51;;;;;;;10.20;7.88;;;14.70;99.90;;;;;;5006834;28;20641;-74
2022/07/01 06:32:17;;;;;;;10.98;8.70;;;14.80;99.90;;;;;;4967234;28;21467;-74
2022/07/01 06:34:43;;;;;;;8.50;7.13;;;14.90;99.90;;;;;;5014590;28;20025;-79
2022/07/01 06:37:09;;;;;;;9.20;7.43;;;14.80;99.90;;;;;;5026713;28;20086;-75
2022/07/01 06:39:34;;;;;;;10.30;8.07;;;15.00;99.90;;;;;;5034235;28;20711;-75
2022/07/01 06:42:00;;;;;;;9.60;7.10;;;15.00;99.90;;;;;;5019475;28;20465;-74
2022/07/01 06:44:26;;;;;;;9.90;6.95;;;15.00;99.90;;;;;;5012885;28;20599;-76
2022/07/01 06:46:52;;;;;;;10.25;7.57;;;15.20;99.90;;;;;;5026123;28;21730;-75
2022/07/01 06:49:18;;;;;;;16.95;12.63;;;15.20;99.90;;;;;;5020406;28;20095;-76
2022/07/01 06:51:44;;;;;;;15.38;9.90;;;15.00;99.90;;;;;;5009004;28;20469;-75
2022/07/01 06:54:09;;;;;;;9.48;7.10;;;15.30;99.90;;;;;;5026229;28;20033;-75
2022/07/01 06:56:35;;;;;;;8.75;7.10;;;15.60;99.90;;;;;;5019864;28;20417;-75
2022/07/01 06:59:01;;;;;;;15.75;11.43;;;15.70;99.90;;;;;;5012984;28;20041;-77
2022/07/01 07:01:27;;;;;;;17.70;13.10;;;15.40;99.90;;;;;;5028142;28;20122;-77
2022/07/01 07:03:54;;;;;;;20.55;14.05;;;15.10;99.90;;;;;;5026709;28;20054;-74
2022/07/01 07:06:20;;;;;;;17.08;11.73;;;15.00;99.90;;;;;;5000264;28;20501;-74
2022/07/01 07:08:45;;;;;;;15.77;11.90;;;15.20;99.90;;;;;;5012992;28;20033;-75
2022/07/01 07:11:11;;;;;;;12.60;9.95;;;15.20;99.90;;;;;;5018929;28;20037;-75
2022/07/01 07:13:37;;;;;;;15.20;10.70;;;15.40;99.90;;;;;;5027123;28;20147;-80
2022/07/01 07:16:04;;;;;;;14.27;10.55;;;15.40;99.90;;;;;;5029390;28;20100;-76
2022/07/01 07:18:29;;;;;;;10.80;7.55;;;15.60;99.90;;;;;;5025654;28;20025;-75
2022/07/01 07:20:55;;;;;;;13.50;9.55;;;16.00;99.90;;;;;;5012222;28;20697;-75
2022/07/01 07:23:22;;;;;;;18.88;13.68;;;16.40;99.90;;;;;;5000917;28;20064;-76
2022/07/01 07:25:48;;;;;;;12.75;9.70;;;16.20;99.90;;;;;;5018288;28;20045;-75
2022/07/01 07:28:13;;;;;;;14.10;10.68;;;17.00;99.90;;;;;;5025984;28;20040;-74
2022/07/01 07:30:39;;;;;;;11.27;8.70;;;17.00;99.90;;;;;;5026606;28;20568;-74
2022/07/01 07:33:05;;;;;;;12.07;9.13;;;16.90;99.90;;;;;;5026078;28;20025;-75
2022/07/01 07:35:30;;;;;;;10.32;8.38;;;17.40;99.90;;;;;;5026390;28;20053;-76
2022/07/01 07:37:56;;;;;;;11.68;7.40;;;17.90;99.90;;;;;;5027406;28;20176;-75
2022/07/01 07:40:22;;;;;;;11.35;7.95;;;18.20;99.90;;;;;;5028293;28;20025;-74
2022/07/01 07:42:48;;;;;;;10.77;8.02;;;17.90;99.90;;;;;;5027753;28;20041;-74
2022/07/01 07:45:15;;;;;;;8.45;6.65;;;18.30;99.90;;;;;;5019005;28;20430;-74
2022/07/01 07:47:48;;;;;;;11.50;9.48;;;18.50;99.90;;;;;;5027135;28;20029;-75
2022/07/01 07:50:14;;;;;;;11.48;9.13;;;17.80;99.90;;;;;;5002815;28;20268;-75
2022/07/01 07:52:40;;;;;;;9.38;8.07;;;17.90;99.90;;;;;;5013078;28;20506;-75
2022/07/01 07:55:08;;;;;;;9.43;6.75;;;17.70;99.90;;;;;;5014611;28;20116;-75
2022/07/01 07:57:36;;;;;;;8.88;7.25;;;18.10;99.90;;;;;;5026821;28;20476;-74
2022/07/01 08:00:04;;;;;;;8.82;6.93;;;18.20;99.90;;;;;;5028070;28;20075;-74
2022/07/01 08:02:37;;;;;;;8.35;6.85;;;17.80;99.90;;;;;;5017199;28;20141;-74
2022/07/01 08:05:03;;;;;;;8.52;7.05;;;17.70;99.90;;;;;;5026196;28;20222;-80
2022/07/01 08:07:29;;;;;;;6.47;5.47;;;18.00;99.90;;;;;;5018840;28;20041;-75
2022/07/01 08:09:55;;;;;;;7.95;6.80;;;18.20;99.90;;;;;;5014021;28;20028;-75
2022/07/01 08:12:22;;;;;;;9.13;7.20;;;17.90;99.90;;;;;;5013451;28;20037;-77
2022/07/01 08:14:48;;;;;;;10.25;8.35;;;17.40;99.90;;;;;;5007601;28;20033;-74
2022/07/01 08:17:14;;;;;;;6.15;5.55;;;17.40;99.90;;;;;;5026187;28;20036;-77
2022/07/01 08:19:39;;;;;;;6.68;3.97;;;18.40;99.90;;;;;;5017903;28;20044;-76
2022/07/01 08:22:05;;;;;;;5.10;4.53;;;19.10;99.90;;;;;;4998665;28;20034;-76
2022/07/01 08:24:31;;;;;;;8.88;6.97;;;19.10;99.90;;;;;;5025725;28;20033;-78
2022/07/01 08:26:56;;;;;;;7.03;5.10;;;18.50;99.90;;;;;;4997851;28;20131;-77
2022/07/01 08:29:22;;;;;;;5.13;4.32;;;18.30;99.90;;;;;;5019585;28;20037;-79
2022/07/01 08:31:48;;;;;;;4.63;2.92;;;19.00;99.90;;;;;;5003179;28;20039;-75
2022/07/01 08:34:15;;;;;;;4.90;3.60;;;19.90;99.90;;;;;;5014980;28;20656;-80
2022/07/01 08:36:41;;;;;;;3.60;2.50;;;19.80;99.90;;;;;;5013319;28;20029;-77
2022/07/01 08:39:06;;;;;;;5.30;4.25;;;20.20;99.90;;;;;;5026745;28;20044;-77
2022/07/01 08:41:32;;;;;;;5.78;3.10;;;18.80;99.90;;;;;;5014793;28;20135;-77
2022/07/01 08:43:58;;;;;;;5.43;4.03;;;19.70;99.90;;;;;;5026387;28;20158;-77
2022/07/01 08:46:26;;;;;;;3.40;2.63;;;19.30;99.90;;;;;;5027580;28;20528;-78
2022/07/01 08:48:52;;;;;;;4.70;2.55;;;19.90;99.90;;;;;;5009139;28;20029;-78
2022/07/01 08:51:18;;;;;;;2.95;1.65;;;20.00;99.90;;;;;;5042993;28;20044;-77
2022/07/01 08:53:43;;;;;;;3.72;2.10;;;20.60;99.90;;;;;;5027372;28;20033;-75
2022/07/01 08:58:54;;;;;;;3.72;2.67;;;20.90;99.90;;;;;;5026568;28;20026;-76
2022/07/01 09:01:21;;;;;;;5.18;3.20;;;20.10;99.90;;;;;;5011937;28;20284;-76
2022/07/01 09:03:48;;;;;;;5.30;3.35;;;19.20;99.90;;;;;;5027073;28;20073;-76
2022/07/01 09:06:18;;;;;;;4.55;3.00;;;19.30;99.90;;;;;;5012161;28;20667;-77
2022/07/01 09:08:44;;;;;;;;;;;18.90;99.90;;;;;;5027784;28;20136;-79
2022/07/01 09:11:15;;;;;;;3.75;2.15;;;19.00;99.90;;;;;;5027513;28;19919;-78
2022/07/01 09:13:42;;;;;;;2.60;1.20;;;19.60;99.90;;;;;;5027098;28;20076;-80
2022/07/01 09:16:17;;;;;;;3.85;1.23;;;20.40;99.90;;;;;;4996638;28;20162;-76
2022/07/01 09:19:00;;;;;;;3.60;1.80;;;20.90;99.90;;;;;;5027244;28;20044;-78
2022/07/01 09:21:29;;;;;;;3.28;1.20;;;20.00;99.90;;;;;;5002073;28;20057;-78
2022/07/01 09:23:56;;;;;;;3.15;1.63;;;20.60;99.90;;;;;;5026033;28;20037;-76
2022/07/01 09:26:21;;;;;;;4.07;2.08;;;19.60;99.90;;;;;;5001876;28;20087;-77
2022/07/01 09:28:55;;;;;;;7.15;1.67;;;18.40;99.90;;;;;;5011371;28;20041;-78
2022/07/01 09:31:21;;;;;;;3.00;1.38;;;19.00;99.90;;;;;;5027535;28;20489;-82
2022/07/01 09:34:05;;;;;;;4.05;1.38;;;19.30;99.90;;;;;;5026054;28;20052;-77
2022/07/01 09:36:31;;;;;;;5.50;1.50;;;18.40;99.90;;;;;;5007684;28;20088;-82
2022/07/01 09:38:57;;;;;;;3.03;1.27;;;18.30;99.90;;;;;;5017708;28;20033;-77
2022/07/01 09:41:25;;;;;;;3.63;1.25;;;18.30;99.90;;;;;;5025311;28;20037;-82
2022/07/01 09:43:51;;;;;;;2.47;1.08;;;18.40;99.90;;;;;;5024025;28;20083;-79
2022/07/01 09:46:16;;;;;;;3.20;1.02;;;18.30;99.90;;;;;;5014620;28;20022;-76
2022/07/01 09:48:44;;;;;;;1.88;0.50;;;18.40;99.90;;;;;;5011865;28;20112;-80
2022/07/01 09:51:12;;;;;;;2.67;0.60;;;19.10;99.90;;;;;;5026532;28;20485;-76
2022/07/01 09:53:38;;;;;;;2.10;0.70;;;19.20;99.90;;;;;;5013082;28;20025;-81
2022/07/01 09:56:04;;;;;;;2.15;0.50;;;20.00;99.90;;;;;;4970698;28;20064;-76
2022/07/01 09:58:34;;;;;;;1.45;0.40;;;20.00;99.90;;;;;;5011587;28;20037;-76
2022/07/01 10:01:01;;;;;;;;;;;20.90;99.90;;;;;;5009874;28;20404;-76
2022/07/01 10:03:29;;;;;;;1.20;0.40;;;21.40;99.90;;;;;;5022664;28;19917;-76
2022/07/01 10:06:06;;;;;;;2.75;0.50;;;20.90;99.90;;;;;;5011336;28;20057;-85
2022/07/01 10:09:13;;;;;;;2.65;0.40;;;20.80;99.90;;;;;;5020450;28;20034;-75
2022/07/01 10:11:42;;;;;;;2.25;0.40;;;20.50;99.90;;;;;;5030593;28;20037;-76
2022/07/01 10:14:11;;;;;;;1.00;0.20;;;20.60;99.90;;;;;;5023776;28;20065;-75
2022/07/01 10:16:38;;;;;;;2.60;0.50;;;21.40;99.90;;;;;;5018367;28;20132;-79
2022/07/01 10:19:24;;;;;;;2.00;0.40;;;20.70;99.90;;;;;;5024331;28;20094;-76
2022/07/01 10:21:56;;;;;;;0.88;0.30;;;21.40;99.90;;;;;;5023655;28;20037;-76
2022/07/01 10:24:23;;;;;;;0.90;0.30;;;22.00;99.90;;;;;;5014634;28;20390;-76
2022/07/01 10:26:48;;;;;;;1.08;0.20;;;21.50;99.90;;;;;;5020575;28;20547;-77
2022/07/01 10:29:36;;;;;;;1.23;0.38;;;22.10;99.90;;;;;;5031712;28;20037;-75
2022/07/01 10:32:08;;;;;;;2.20;0.40;;;21.30;99.90;;;;;;5023473;28;20053;-76
2022/07/01 10:34:41;;;;;;;2.85;0.22;;;20.30;99.90;;;;;;5016289;28;20025;-76
2022/07/01 10:37:10;;;;;;;1.70;0.20;;;21.20;99.90;;;;;;5031642;28;20165;-75
2022/07/01 10:39:56;;;;;;;2.03;0.20;;;21.90;99.90;;;;;;5017699;28;20029;-76
2022/07/01 10:42:26;;;;;;;1.25;0.30;;;21.60;99.90;;;;;;5017649;28;20073;-75
2022/07/01 10:45:09;;;;;;;3.75;0.20;;;21.60;99.90;;;;;;5016838;28;20506;-75
2022/07/01 10:47:36;;;;;;;1.15;0.50;;;22.20;99.90;;;;;;5031231;28;20040;-76
2022/07/01 10:50:10;;;;;;;0.60;0.10;;;21.80;99.90;;;;;;5008424;28;20414;-76
2022/07/01 10:52:36;;;;;;;0.75;0.20;;;22.10;99.90;;;;;;5023694;28;20106;-76
2022/07/01 10:55:05;;;;;;;1.42;0.20;;;20.80;99.90;;;;;;5031029;28;20029;-75
2022/07/01 10:57:39;;;;;;;1.02;0.30;;;20.80;99.90;;;;;;5031835;28;20033;-75
2022/07/01 11:00:05;;;;;;;1.20;0.30;;;20.80;99.90;;;;;;5029852;28;20030;-75
2022/07/01 11:02:33;;;;;;;0.60;0.15;;;21.50;99.90;;;;;;5017187;28;20063;-76
2022/07/01 11:05:10;;;;;;;1.13;0.20;;;21.90;99.90;;;;;;5023193;28;20128;-75
2022/07/01 11:07:39;;;;;;;2.33;0.20;;;21.50;99.90;;;;;;5019106;28;20033;-75
2022/07/01 11:10:07;;;;;;;1.17;0.20;;;21.30;99.90;;;;;;5030385;28;20037;-75
2022/07/01 11:12:33;;;;;;;1.75;0.00;;;21.40;99.90;;;;;;5031385;28;20174;-76
2022/07/01 11:15:01;;;;;;;1.33;0.15;;;22.50;99.90;;;;;;5031007;28;20029;-78
2022/07/01 11:17:28;;;;;;;1.10;0.20;;;22.80;99.90;;;;;;5012093;28;20036;-78
2022/07/01 11:19:57;;;;;;;2.03;0.20;;;22.50;99.90;;;;;;5003960;28;20176;-76
2022/07/01 11:22:29;;;;;;;1.00;0.10;;;22.50;99.90;;;;;;5009927;28;20048;-79
2022/07/01 11:24:57;;;;;;;1.45;0.20;;;21.90;99.90;;;;;;5027995;28;21025;-76
2022/07/01 11:27:24;;;;;;;1.43;0.20;;;21.80;99.90;;;;;;5004194;28;20033;-75
2022/07/01 11:29:58;;;;;;;1.17;0.15;;;21.30;99.90;;;;;;5013863;28;20029;-75
2022/07/01 11:32:29;;;;;;;0.73;0.10;;;20.80;99.90;;;;;;5027508;28;20033;-75
2022/07/01 11:34:56;;;;;;;3.25;0.32;;;21.40;99.90;;;;;;5027512;28;20033;-75
2022/07/01 11:40:12;;;;;;;1.50;0.10;;;20.60;99.90;;;;;;5028890;28;20085;-75
2022/07/01 11:42:38;;;;;;;0.75;0.10;;;20.40;99.90;;;;;;5028820;28;20037;-75
2022/07/01 11:45:05;;;;;;;3.78;0.25;;;20.00;99.90;;;;;;5026822;28;20428;-76
2022/07/01 11:47:30;;;;;;;0.85;0.20;;;19.90;99.90;;;;;;5028249;28;20114;-75
2022/07/01 11:49:58;;;;;;;2.60;0.28;;;19.70;99.90;;;;;;5028095;28;20133;-75
2022/07/01 11:52:23;;;;;;;1.65;0.20;;;20.60;99.90;;;;;;5027764;28;20043;-75
2022/07/01 11:54:52;;;;;;;2.42;0.22;;;20.90;99.90;;;;;;5026833;28;20029;-74
2022/07/01 11:57:23;;;;;;;1.13;0.20;;;21.10;99.90;;;;;;5003470;28;20056;-75
2022/07/01 11:59:51;;;;;;;3.97;0.30;;;20.90;99.90;;;;;;5018527;28;20029;-75
2022/07/01 12:02:21;;;;;;;1.27;0.20;;;20.70;99.90;;;;;;5011053;28;20041;-75
2022/07/01 12:04:48;;;;;;;1.35;0.20;;;21.30;99.90;;;;;;5028118;28;20029;-75
2022/07/01 12:07:15;;;;;;;1.27;0.20;;;21.10;99.90;;;;;;5027630;28;20170;-75
2022/07/01 12:09:42;;;;;;;1.30;0.20;;;21.10;99.90;;;;;;5018837;28;20516;-76
2022/07/01 12:12:15;;;;;;;1.33;0.20;;;20.00;99.90;;;;;;5026550;28;20029;-76
2022/07/01 12:14:53;;;;;;;2.30;0.20;;;20.50;99.90;;;;;;5027233;28;20022;-74
2022/07/01 12:17:19;;;;;;;1.10;0.20;;;21.30;99.90;;;;;;5011455;28;20037;-75
2022/07/01 12:19:49;;;;;;;1.33;0.20;;;21.90;99.90;;;;;;5028802;28;20445;-75
2022/07/01 12:22:19;;;;;;;1.13;0.20;;;21.40;99.90;;;;;;5008329;28;20131;-74
2022/07/01 12:24:46;;;;;;;0.90;0.10;;;20.70;99.90;;;;;;5002032;28;20056;-77
2022/07/01 12:27:12;;;;;;;1.90;0.20;;;21.00;99.90;;;;;;5009571;28;20033;-75
2022/07/01 12:29:47;;;;;;;2.05;0.43;;;20.30;99.90;;;;;;5012993;28;20052;-75
2022/07/01 12:32:19;;;;;;;2.25;0.20;;;20.60;99.90;;;;;;5042523;28;20063;-75
2022/07/01 12:34:47;;;;;;;1.67;0.20;;;20.60;99.90;;;;;;5027096;28;20101;-76
2022/07/01 12:37:18;;;;;;;1.70;0.20;;;20.70;99.90;;;;;;5015232;28;20059;-75
2022/07/01 12:39:45;;;;;;;1.02;0.13;;;20.00;99.90;;;;;;5024464;28;20025;-76
2022/07/01 12:42:24;;;;;;;1.15;0.10;;;20.40;99.90;;;;;;5008910;28;20119;-76
2022/07/01 12:44:51;;;;;;;1.50;0.25;;;20.10;99.90;;;;;;5011606;28;20493;-75
2022/07/01 12:47:33;;;;;;;1.38;0.10;;;20.40;99.90;;;;;;5013917;28;20033;-75
2022/07/01 12:50:21;;;;;;;1.50;0.20;;;21.40;99.90;;;;;;5016244;28;20410;-75
2022/07/01 12:53:02;;;;;;;1.52;0.20;;;21.40;99.90;;;;;;5014091;28;20036;-75